Noatak, AK

11:24 AM AKST on December 20, 2014 (GMT -0900)
Noatak | Change Station
CLOSE
Current Station
Airport
Location: Noatak,
Elevation: 85 ft
Nearby Weather Stations

Elev 85 ft 67.57 °N, 162.98 °W | Updated 8 minutes ago

Clear
Clear
1 °F
Feels Like -6 °F
N
4
Wind Variable Wind from NNE

Today
High -- | Low -- °F
--% Chance of Precip.
Yesterday
High -- | Low -- °F
Precip. -- in
1:17 PM 2:22 PM
Waning Crescent, 2% visible
Pressure 29.38 in
Visibility 10.0 miles
Clouds Clear
Windchill -6 °F
Dew Point -4 °F
Humidity 78%
Rainfall 0.00 in
Snow Depth Not available.
UV 0 out of 12
Pollen Not available.
Air Quality Not available.
Flu Activity Not available.
METAR PAWN 202016Z AUTO 03003KT 10SM CLR M17/M20 A2938 RMK AO1

More Conditions Fewer Conditions

Pressure 29.38 in
Visibility 10.0 miles
Clouds Clear
Windchill -6 °F
Dew Point -4 °F
Humidity 78%
Rainfall 0.00 in
Snow Depth Not available.
UV 0 out of 12
Pollen Not available.
Air Quality Not available.
Flu Activity Not available.
METAR PAWN 202016Z AUTO 03003KT 10SM CLR M17/M20 A2938 RMK AO1

More Conditions Fewer Conditions

10-Day Weather Forecast

Almanac

Astronomy

Dec. 20, 2014 Rise Set
Actual Time
Civil Twilight
Nautical Twilight
Astronomical Twilight
Moon
Length of Visible Light
Length of Day
Tomorrow will be .
, % of the Moon is Illuminated

Today's Extremes

State Highs State Lows

Community

WunderPhotos

Upload Photos

1,779,271 photos uploaded!

WunderBlogs® & News

Nearby

Air Quality

  Air Quality AQ Index Pollutant
Not available.

Snow Depth

Station Depth Elevation

Earthquake Activity

City Distance Mag. Time & Date
Minimum magnitude displayed is 2.5.

Coastal Water Temperatures

Place Temperature

Nearby Weather Stations